createdAt,value
2023-03-22T00:01:49.995Z,98452.63
2023-03-22T00:04:35.704Z,98440.50
2023-03-22T00:07:21.003Z,98436.00
2023-03-22T00:10:07.091Z,98440.56
2023-03-22T00:12:52.744Z,98450.41
2023-03-22T00:15:38.126Z,98443.78
2023-03-22T00:18:24.095Z,98461.31
2023-03-22T00:21:15.503Z,98443.84
2023-03-22T00:24:01.004Z,98449.84
2023-03-22T00:26:47.572Z,98441.13
2023-03-22T00:29:33.092Z,98440.16
2023-03-22T00:32:18.449Z,98441.91
2023-03-22T00:35:07.989Z,98437.53
2023-03-22T00:37:53.541Z,98440.03
2023-03-22T00:40:42.144Z,98439.75
2023-03-22T00:43:27.790Z,98443.06
2023-03-22T00:46:15.602Z,98454.31
2023-03-22T00:49:00.942Z,98472.09
2023-03-22T00:51:46.238Z,98453.47
2023-03-22T00:54:31.622Z,98478.13
2023-03-22T00:57:17.811Z,98474.66
2023-03-22T01:00:14.265Z,98483.41
2023-03-22T01:03:05.066Z,98490.50
2023-03-22T01:05:56.677Z,98490.88
2023-03-22T01:08:42.483Z,98467.97
2023-03-22T01:11:28.572Z,98494.53
2023-03-22T01:14:14.123Z,98484.78
2023-03-22T01:17:00.125Z,98493.97
2023-03-22T01:19:45.820Z,98503.06
2023-03-22T01:22:31.391Z,98529.16
2023-03-22T01:25:17.676Z,98533.78
2023-03-22T01:28:03.247Z,98550.69
2023-03-22T01:30:50.147Z,98522.16
2023-03-22T01:33:35.522Z,98548.59
2023-03-22T01:36:21.410Z,98556.78
2023-03-22T01:39:06.946Z,98555.47
2023-03-22T01:41:53.115Z,98545.41
2023-03-22T01:44:39.040Z,98575.97
2023-03-22T01:47:24.828Z,98577.00
2023-03-22T01:50:10.515Z,98573.63
2023-03-22T01:52:57.612Z,98574.03
2023-03-22T01:55:52.244Z,98583.88
2023-03-22T01:58:43.426Z,98581.59
2023-03-22T02:01:32.423Z,98593.88
2023-03-22T02:04:23.760Z,98588.78
2023-03-22T02:07:15.733Z,98605.59
2023-03-22T02:10:03.903Z,98601.41
2023-03-22T02:13:24.556Z,98616.41
2023-03-22T02:16:53.886Z,98626.00
2023-03-22T02:20:11.205Z,98621.06
2023-03-22T02:23:50.948Z,98629.09
2023-03-22T02:26:52.194Z,98651.72
2023-03-22T02:30:01.814Z,98656.25
2023-03-22T02:33:18.306Z,98660.91
2023-03-22T02:36:22.630Z,98653.38
2023-03-22T02:39:36.281Z,98663.09
2023-03-22T02:42:37.001Z,98667.50
2023-03-22T02:45:32.187Z,98666.78
2023-03-22T02:48:20.726Z,98672.19
2023-03-22T02:51:15.519Z,98680.00
2023-03-22T02:54:10.336Z,98692.09
2023-03-22T02:57:10.144Z,98694.78
2023-03-22T02:59:58.381Z,98712.94
2023-03-22T03:02:49.678Z,98726.75
2023-03-22T03:05:35.357Z,98719.78
2023-03-22T03:08:22.414Z,98723.38
2023-03-22T03:11:10.217Z,98719.22
2023-03-22T03:13:55.615Z,98726.94
2023-03-22T03:16:41.086Z,98741.78
2023-03-22T03:19:46.445Z,98745.38
2023-03-22T03:22:45.640Z,98747.19
2023-03-22T03:25:43.611Z,98755.91
2023-03-22T03:28:43.343Z,98762.22
2023-03-22T03:31:43.072Z,98757.09
2023-03-22T03:34:36.243Z,98759.72
2023-03-22T03:37:29.967Z,98770.22
2023-03-22T03:40:29.033Z,98777.19
2023-03-22T03:43:17.795Z,98785.00
2023-03-22T03:46:03.678Z,98789.34
2023-03-22T03:48:51.735Z,98804.97
2023-03-22T03:51:47.523Z,98799.78
2023-03-22T03:54:34.276Z,98808.50
2023-03-22T03:57:20.098Z,98814.56
2023-03-22T04:00:06.687Z,98808.59
2023-03-22T04:03:11.071Z,98826.84
2023-03-22T04:06:17.113Z,98834.63
2023-03-22T04:09:08.639Z,98833.78
2023-03-22T04:11:59.514Z,98838.13
2023-03-22T04:14:45.311Z,98839.94
2023-03-22T04:17:40.074Z,98846.81
2023-03-22T04:20:27.111Z,98853.75
2023-03-22T04:23:12.718Z,98855.53
2023-03-22T04:25:59.675Z,98854.66
2023-03-22T04:28:56.920Z,98861.53
2023-03-22T04:31:42.543Z,98865.06
2023-03-22T04:34:51.400Z,98868.53
2023-03-22T04:37:38.059Z,98869.44
2023-03-22T04:40:36.693Z,98873.72
2023-03-22T04:43:29.591Z,98873.69
2023-03-22T04:46:21.370Z,98875.47
2023-03-22T04:49:14.096Z,98888.50
2023-03-22T04:52:00.975Z,98886.75
2023-03-22T04:54:54.123Z,98898.84
2023-03-22T04:57:39.412Z,98900.59
2023-03-22T05:00:24.811Z,98902.31
2023-03-22T05:03:11.788Z,98908.41
2023-03-22T05:06:03.288Z,98906.72
2023-03-22T05:09:00.097Z,98908.41
2023-03-22T05:11:45.817Z,98911.00
2023-03-22T05:14:56.118Z,98919.56
2023-03-22T05:17:46.899Z,98923.03
2023-03-22T05:20:33.673Z,98922.16
2023-03-22T05:23:28.517Z,98922.19
2023-03-22T05:26:16.263Z,98926.59
2023-03-22T05:29:02.333Z,98930.13
2023-03-22T05:32:07.784Z,98949.97
2023-03-22T05:34:53.046Z,98945.69
2023-03-22T05:37:51.688Z,98948.25
2023-03-22T05:40:38.680Z,98949.13
2023-03-22T05:43:24.180Z,98949.09
2023-03-22T05:46:11.907Z,98949.06
2023-03-22T05:49:11.712Z,98950.81
2023-03-22T05:51:58.088Z,98953.41
2023-03-22T05:54:53.303Z,98952.56
2023-03-22T05:57:39.947Z,98952.47
2023-03-22T06:00:27.274Z,98952.53
2023-03-22T06:03:35.529Z,98948.25
2023-03-22T06:06:43.758Z,98952.59
2023-03-22T06:09:40.508Z,98940.50
2023-03-22T06:12:30.435Z,98942.22
2023-03-22T06:15:23.146Z,98943.13
2023-03-22T06:18:26.535Z,98954.34
2023-03-22T06:21:20.540Z,98947.44
2023-03-22T06:24:06.292Z,98946.50
2023-03-22T06:26:52.769Z,98952.56
2023-03-22T06:29:38.948Z,98952.59
2023-03-22T06:32:26.832Z,98951.75
2023-03-22T06:35:15.345Z,98943.09
2023-03-22T06:38:01.358Z,98943.09
2023-03-22T06:40:46.767Z,98943.91
2023-03-22T06:43:32.247Z,98948.19
2023-03-22T06:46:30.273Z,98945.59
2023-03-22T06:49:26.608Z,98946.38
2023-03-22T06:52:12.760Z,98945.50
2023-03-22T06:54:58.591Z,98940.28
2023-03-22T06:57:43.996Z,98942.91
2023-03-22T07:00:30.328Z,98930.78
2023-03-22T07:03:15.520Z,98931.59
2023-03-22T07:06:08.955Z,98922.03
2023-03-22T07:08:57.717Z,98928.00
2023-03-22T07:11:48.537Z,98921.88
2023-03-22T07:14:34.654Z,98923.56
2023-03-22T07:17:37.212Z,98914.84
2023-03-22T07:20:23.011Z,98914.78
2023-03-22T07:23:10.906Z,98924.19
2023-03-22T07:26:04.815Z,98912.94
2023-03-22T07:28:53.164Z,98913.75
2023-03-22T07:31:45.845Z,98913.66
2023-03-22T07:34:40.576Z,98919.69
2023-03-22T07:37:33.405Z,98911.81
2023-03-22T07:40:19.902Z,98907.38
2023-03-22T07:43:06.887Z,98901.94
2023-03-22T07:46:07.023Z,98901.66
2023-03-22T07:49:19.033Z,98903.28
2023-03-22T07:52:26.585Z,98902.25
2023-03-22T07:55:14.735Z,98917.75
2023-03-22T07:58:00.301Z,98903.91
2023-03-22T08:00:45.827Z,98900.50
2023-03-22T08:03:59.944Z,98910.88
2023-03-22T08:07:04.486Z,98912.47
2023-03-22T08:09:50.907Z,98921.81
2023-03-22T08:12:36.636Z,98916.44
2023-03-22T08:15:38.831Z,98920.59
2023-03-22T08:18:26.187Z,98924.84
2023-03-22T08:21:11.600Z,98917.84
2023-03-22T08:23:57.428Z,98909.13
2023-03-22T08:26:58.401Z,98909.88
2023-03-22T08:29:51.734Z,98902.84
2023-03-22T08:32:37.932Z,98905.34
2023-03-22T08:35:23.660Z,98910.41
2023-03-22T08:38:09.304Z,98897.31
2023-03-22T08:41:03.560Z,98888.59
2023-03-22T08:43:49.379Z,98897.19
2023-03-22T08:46:35.376Z,98898.78
2023-03-22T08:49:21.876Z,98885.69
2023-03-22T08:52:22.107Z,98893.25
2023-03-22T08:55:26.555Z,98882.66
2023-03-22T08:58:30.470Z,98874.69
2023-03-22T09:01:37.421Z,98874.63
2023-03-22T09:04:25.011Z,98877.19
2023-03-22T09:07:11.636Z,98874.41
2023-03-22T09:09:57.779Z,98874.94
2023-03-22T09:12:44.028Z,98866.78
2023-03-22T09:15:29.237Z,98852.63
2023-03-22T09:18:35.064Z,98858.28
2023-03-22T09:21:26.459Z,98845.69
2023-03-22T09:24:18.367Z,98851.03
2023-03-22T09:27:10.003Z,98842.56
2023-03-22T09:29:55.911Z,98841.50
2023-03-22T09:32:42.240Z,98843.63
2023-03-22T09:35:32.161Z,98849.25
2023-03-22T09:38:25.190Z,98843.50
2023-03-22T09:41:33.972Z,98849.53
2023-03-22T09:44:39.305Z,98848.88
2023-03-22T09:47:44.830Z,98858.50
2023-03-22T09:50:33.257Z,98848.16
2023-03-22T09:53:21.481Z,98844.72
2023-03-22T09:56:18.007Z,98862.09
2023-03-22T09:59:54.940Z,98861.22
2023-03-22T10:03:10.876Z,98852.44
2023-03-22T10:06:04.823Z,98855.25
2023-03-22T10:08:59.370Z,98854.47
2023-03-22T10:11:46.105Z,98847.63
2023-03-22T10:14:42.734Z,98835.47
2023-03-22T10:17:29.787Z,98838.28
2023-03-22T10:20:22.336Z,98838.94
2023-03-22T10:23:16.282Z,98828.34
2023-03-22T10:26:05.071Z,98835.22
2023-03-22T10:29:04.017Z,98826.59
2023-03-22T10:31:50.265Z,98813.84
2023-03-22T10:34:35.919Z,98840.41
2023-03-22T10:37:27.029Z,98822.69
2023-03-22T10:40:20.132Z,98810.97
2023-03-22T10:43:26.288Z,98825.44
2023-03-22T10:46:25.729Z,98822.31
2023-03-22T10:49:22.708Z,98806.91
2023-03-22T10:52:21.612Z,98819.53
2023-03-22T10:55:15.976Z,98818.38
2023-03-22T10:58:22.973Z,98812.34
2023-03-22T11:01:11.633Z,98815.53
2023-03-22T11:04:10.689Z,98808.22
2023-03-22T11:06:56.539Z,98799.34
2023-03-22T11:09:42.128Z,98802.44
2023-03-22T11:12:27.445Z,98795.53
2023-03-22T11:15:41.625Z,98794.34
2023-03-22T11:18:31.787Z,98794.00
2023-03-22T11:21:18.448Z,98811.22
2023-03-22T11:24:07.661Z,98793.28
2023-03-22T11:27:10.983Z,98783.34
2023-03-22T11:30:34.161Z,98786.41
2023-03-22T11:33:21.752Z,98787.13
2023-03-22T11:36:19.066Z,98769.50
2023-03-22T11:39:08.019Z,98770.44
2023-03-22T11:41:57.684Z,98773.19
2023-03-22T11:44:44.777Z,98767.34
2023-03-22T11:47:36.650Z,98754.81
2023-03-22T11:50:32.143Z,98764.31
2023-03-22T11:53:28.119Z,98778.22
2023-03-22T11:56:18.894Z,98771.13
2023-03-22T11:59:09.257Z,98764.28
2023-03-22T12:02:20.987Z,98751.97
2023-03-22T12:05:12.790Z,98742.94
2023-03-22T12:08:18.646Z,98746.50
2023-03-22T12:11:07.729Z,98725.78
2023-03-22T12:14:00.316Z,98744.75
2023-03-22T12:16:57.959Z,98734.13
2023-03-22T12:20:12.891Z,98731.66
2023-03-22T12:22:58.454Z,98726.81
2023-03-22T12:25:55.272Z,98739.34
2023-03-22T12:29:00.879Z,98739.66
2023-03-22T12:32:03.493Z,98725.44
2023-03-22T12:34:55.054Z,98727.47
2023-03-22T12:37:52.384Z,98713.72
2023-03-22T12:40:41.526Z,98715.63
2023-03-22T12:43:53.356Z,98720.63
2023-03-22T12:46:50.470Z,98701.47
2023-03-22T12:49:54.029Z,98691.22
2023-03-22T12:52:47.374Z,98699.53
2023-03-22T12:55:39.026Z,98694.63
2023-03-22T12:58:26.586Z,98701.66
2023-03-22T13:01:34.137Z,98690.13
2023-03-22T13:04:25.973Z,98694.97
2023-03-22T13:07:30.652Z,98678.13
2023-03-22T13:10:34.740Z,98671.13
2023-03-22T13:13:23.780Z,98658.78
2023-03-22T13:16:09.379Z,98658.84
2023-03-22T13:19:00.684Z,98642.50
2023-03-22T13:21:48.916Z,98652.78
2023-03-22T13:24:34.978Z,98653.78
2023-03-22T13:27:20.416Z,98654.47
2023-03-22T13:30:34.774Z,98634.81
2023-03-22T13:33:24.989Z,98634.94
2023-03-22T13:36:25.096Z,98637.56
2023-03-22T13:39:12.578Z,98640.28
2023-03-22T13:42:17.063Z,98642.03
2023-03-22T13:45:04.022Z,98652.41
2023-03-22T13:48:04.916Z,98647.44
2023-03-22T13:50:50.330Z,98646.66
2023-03-22T13:53:36.828Z,98636.31
2023-03-22T13:57:00.997Z,98623.75
2023-03-22T14:00:12.139Z,98622.59
2023-03-22T14:03:13.557Z,98604.22
2023-03-22T14:06:28.154Z,98593.34
2023-03-22T14:09:23.497Z,98594.34
2023-03-22T14:12:19.190Z,98592.81
2023-03-22T14:15:07.428Z,98586.25
2023-03-22T14:18:00.248Z,98562.22
2023-03-22T14:20:50.971Z,98566.25
